createdAt,value
2022-09-04T00:00:19.396Z,59.20
2022-09-04T00:01:43.154Z,59.91
2022-09-04T00:03:21.524Z,59.04
2022-09-04T00:04:48.223Z,59.51
2022-09-04T00:05:56.641Z,59.53
2022-09-04T00:07:24.701Z,59.53
2022-09-04T00:08:39.802Z,59.49
2022-09-04T00:09:48.314Z,60.09
2022-09-04T00:11:14.408Z,59.73
2022-09-04T00:12:26.749Z,60.21
2022-09-04T00:13:41.971Z,59.76
2022-09-04T00:14:54.497Z,59.95
2022-09-04T00:16:04.733Z,60.04
2022-09-04T00:17:16.530Z,60.90
2022-09-04T00:18:39.861Z,59.54
2022-09-04T00:19:48.141Z,60.99
2022-09-04T00:21:05.275Z,60.57
2022-09-04T00:22:25.423Z,60.36
2022-09-04T00:23:55.629Z,60.06
2022-09-04T00:25:25.367Z,59.76
2022-09-04T00:26:33.580Z,60.84
2022-09-04T00:27:44.772Z,60.58
2022-09-04T00:28:50.758Z,60.68
2022-09-04T00:30:11.477Z,60.75
2022-09-04T00:31:34.030Z,60.48
2022-09-04T00:32:55.302Z,60.17
2022-09-04T00:34:09.553Z,60.65
2022-09-04T00:35:26.469Z,61.29
2022-09-04T00:36:30.583Z,61.14
2022-09-04T00:38:11.513Z,60.77
2022-09-04T00:39:19.801Z,61.36
2022-09-04T00:40:47.249Z,61.20
2022-09-04T00:42:05.650Z,60.71
2022-09-04T00:43:29.258Z,61.27
2022-09-04T00:44:51.912Z,61.33
2022-09-04T00:46:13.823Z,61.21
2022-09-04T00:47:16.043Z,61.96
2022-09-04T00:48:29.391Z,61.51
2022-09-04T00:50:01.103Z,61.67
2022-09-04T00:51:24.440Z,62.33
2022-09-04T00:52:45.213Z,62.14
2022-09-04T00:54:25.329Z,62.43
2022-09-04T00:55:42.462Z,62.58
2022-09-04T00:57:19.300Z,62.51
2022-09-04T00:58:36.620Z,63.23
2022-09-04T00:59:57.173Z,62.47
2022-09-04T01:01:00.368Z,63.25
2022-09-04T01:02:19.528Z,63.54
2022-09-04T01:03:34.838Z,63.56
2022-09-04T01:04:43.213Z,63.91
2022-09-04T01:06:42.520Z,63.33
2022-09-04T01:07:59.603Z,63.90
2022-09-04T01:09:21.978Z,63.97
2022-09-04T01:10:43.609Z,63.84
2022-09-04T01:11:51.858Z,63.62
2022-09-04T01:13:12.927Z,64.73
2022-09-04T01:14:26.203Z,64.12
2022-09-04T01:15:39.077Z,64.16
2022-09-04T01:16:59.655Z,64.42
2022-09-04T01:18:07.984Z,64.63
2022-09-04T01:19:34.568Z,64.40
2022-09-04T01:21:19.183Z,63.85
2022-09-04T01:22:24.194Z,64.68
2022-09-04T01:23:35.303Z,64.53
2022-09-04T01:24:49.512Z,64.25
2022-09-04T01:26:19.640Z,64.40
2022-09-04T01:27:27.561Z,64.80
2022-09-04T01:28:56.389Z,64.99
2022-09-04T01:30:13.592Z,64.73
2022-09-04T01:31:24.680Z,64.84
2022-09-04T01:32:48.177Z,64.70
2022-09-04T01:33:54.866Z,65.06
2022-09-04T01:35:30.744Z,65.00
2022-09-04T01:36:47.695Z,65.57
2022-09-04T01:38:16.598Z,65.58
2022-09-04T01:39:23.058Z,65.87
2022-09-04T01:40:36.349Z,65.47
2022-09-04T01:41:44.301Z,65.13
2022-09-04T01:43:11.326Z,64.83
2022-09-04T01:44:13.903Z,64.96
2022-09-04T01:45:25.461Z,65.32
2022-09-04T01:46:51.997Z,65.34
2022-09-04T01:48:00.447Z,65.28
2022-09-04T01:49:24.334Z,65.14
2022-09-04T01:50:31.402Z,65.76
2022-09-04T01:52:11.074Z,65.36
2022-09-04T01:53:23.911Z,66.40
2022-09-04T01:54:47.721Z,65.76
2022-09-04T01:56:04.133Z,65.48
2022-09-04T01:57:36.976Z,65.56
2022-09-04T01:59:06.322Z,65.46
2022-09-04T02:00:11.780Z,66.26
2022-09-04T02:01:26.183Z,66.53
2022-09-04T02:02:46.814Z,66.44
2022-09-04T02:04:08.041Z,66.61
2022-09-04T02:05:28.893Z,67.05
2022-09-04T02:06:52.452Z,66.41
2022-09-04T02:08:47.312Z,65.86
2022-09-04T02:09:58.378Z,66.20
2022-09-04T02:11:09.600Z,67.22
2022-09-04T02:12:42.453Z,66.93
2022-09-04T02:14:15.395Z,67.27
2022-09-04T02:15:49.324Z,67.14
2022-09-04T02:16:59.275Z,67.38
2022-09-04T02:18:11.651Z,67.13
2022-09-04T02:19:36.850Z,66.86
2022-09-04T02:20:47.205Z,66.85
2022-09-04T02:22:03.970Z,67.05
2022-09-04T02:23:26.385Z,67.62
2022-09-04T02:24:53.364Z,67.28
2022-09-04T02:25:55.495Z,67.33
2022-09-04T02:27:08.293Z,67.57
2022-09-04T02:28:28.997Z,67.86
2022-09-04T02:29:52.259Z,67.85
2022-09-04T02:31:00.062Z,68.40
2022-09-04T02:32:14.474Z,68.01
2022-09-04T02:33:25.434Z,67.96
2022-09-04T02:34:44.883Z,67.72
2022-09-04T02:36:00.763Z,67.81
2022-09-04T02:37:14.788Z,68.17
2022-09-04T02:38:35.518Z,67.78
2022-09-04T02:39:40.569Z,67.89
2022-09-04T02:40:58.839Z,67.85
2022-09-04T02:42:22.622Z,68.14
2022-09-04T02:43:35.550Z,68.01
2022-09-04T02:44:49.287Z,68.48
2022-09-04T02:46:00.110Z,68.61
2022-09-04T02:47:25.253Z,67.57
2022-09-04T02:48:41.178Z,68.16
2022-09-04T02:49:58.610Z,68.07
2022-09-04T02:51:13.937Z,68.53
2022-09-04T02:52:21.947Z,68.46
2022-09-04T02:53:44.093Z,68.47
2022-09-04T02:55:21.033Z,68.17
2022-09-04T02:56:58.620Z,68.98
2022-09-04T02:58:16.891Z,68.53
2022-09-04T02:59:55.646Z,68.89
2022-09-04T03:01:10.202Z,69.63
2022-09-04T03:02:21.486Z,69.68
2022-09-04T03:03:29.355Z,69.80
2022-09-04T03:04:51.215Z,69.29
2022-09-04T03:05:59.101Z,69.22
2022-09-04T03:07:24.455Z,69.37
2022-09-04T03:08:46.133Z,69.93
2022-09-04T03:09:52.311Z,69.87
2022-09-04T03:11:05.096Z,69.77
2022-09-04T03:12:29.515Z,69.76
2022-09-04T03:13:47.094Z,70.17
2022-09-04T03:14:58.225Z,69.91
2022-09-04T03:16:16.187Z,69.90
2022-09-04T03:17:33.179Z,69.95
2022-09-04T03:18:53.580Z,69.47
2022-09-04T03:20:02.790Z,69.57
2022-09-04T03:21:17.288Z,69.45
2022-09-04T03:22:48.675Z,69.43
2022-09-04T03:23:58.739Z,70.24
2022-09-04T03:25:41.183Z,70.00
2022-09-04T03:26:58.046Z,70.97
2022-09-04T03:28:01.137Z,71.14
2022-09-04T03:29:03.274Z,70.88
2022-09-04T03:30:09.151Z,71.62
2022-09-04T03:31:23.647Z,71.07
2022-09-04T03:32:25.891Z,71.18
2022-09-04T03:33:45.598Z,71.87
2022-09-04T03:35:21.432Z,70.73
2022-09-04T03:36:40.220Z,71.85
2022-09-04T03:37:49.550Z,71.23
2022-09-04T03:39:06.121Z,71.63
2022-09-04T03:40:08.521Z,71.42
2022-09-04T03:41:30.337Z,72.05
2022-09-04T03:42:44.653Z,72.57
2022-09-04T03:43:52.474Z,71.95
2022-09-04T03:45:12.851Z,72.41
2022-09-04T03:46:51.168Z,72.08
2022-09-04T03:48:19.665Z,72.08
2022-09-04T03:49:44.179Z,72.18
2022-09-04T03:51:10.871Z,72.21
2022-09-04T03:52:33.005Z,73.27
2022-09-04T03:53:43.454Z,73.07
2022-09-04T03:55:06.318Z,73.61
2022-09-04T03:56:30.150Z,72.98
2022-09-04T03:57:53.573Z,73.10
2022-09-04T03:59:15.466Z,73.16
2022-09-04T04:00:40.510Z,73.25
2022-09-04T04:02:03.933Z,73.93
2022-09-04T04:03:31.397Z,73.96
2022-09-04T04:04:52.336Z,74.09
2022-09-04T04:06:06.733Z,74.08
2022-09-04T04:07:19.829Z,74.12
2022-09-04T04:09:03.463Z,73.89
2022-09-04T04:10:39.356Z,73.14
2022-09-04T04:12:00.371Z,73.70
2022-09-04T04:13:11.239Z,73.64
2022-09-04T04:14:30.774Z,74.03
2022-09-04T04:16:04.156Z,73.63
2022-09-04T04:17:34.976Z,74.02
2022-09-04T04:18:46.380Z,72.71
2022-09-04T04:20:13.479Z,72.29
2022-09-04T04:21:21.494Z,72.63
2022-09-04T04:22:45.008Z,72.79
2022-09-04T04:23:56.481Z,72.61
2022-09-04T04:25:18.335Z,72.34
2022-09-04T04:26:40.555Z,73.03
2022-09-04T04:27:54.070Z,72.10
2022-09-04T04:29:02.299Z,72.52
2022-09-04T04:30:09.244Z,72.24
2022-09-04T04:31:20.152Z,72.56
2022-09-04T04:32:31.308Z,71.71
2022-09-04T04:33:43.949Z,72.43
2022-09-04T04:35:03.427Z,72.11
2022-09-04T04:36:24.784Z,72.47
2022-09-04T04:37:46.683Z,73.52
2022-09-04T04:38:52.228Z,73.51
2022-09-04T04:40:25.003Z,73.47
2022-09-04T04:41:53.335Z,72.94
2022-09-04T04:43:05.438Z,74.27
2022-09-04T04:44:44.199Z,73.58
2022-09-04T04:45:55.826Z,74.07
2022-09-04T04:47:24.043Z,74.25
2022-09-04T04:48:59.075Z,73.83
2022-09-04T04:50:21.837Z,74.93
2022-09-04T04:51:47.169Z,74.60
2022-09-04T04:52:56.295Z,75.52
2022-09-04T04:54:16.935Z,74.96
2022-09-04T04:55:38.717Z,74.68
2022-09-04T04:56:57.245Z,75.04
2022-09-04T04:58:18.134Z,75.75
2022-09-04T04:59:47.489Z,75.84
2022-09-04T05:01:28.052Z,75.66
2022-09-04T05:03:00.772Z,77.10
2022-09-04T05:04:23.064Z,76.68
2022-09-04T05:06:00.119Z,76.43
2022-09-04T05:07:12.776Z,76.79
2022-09-04T05:08:34.287Z,78.54
2022-09-04T05:09:54.407Z,77.84
2022-09-04T05:11:04.400Z,78.32
2022-09-04T05:12:23.883Z,78.67
2022-09-04T05:13:48.664Z,78.31
2022-09-04T05:15:22.712Z,79.61
2022-09-04T05:16:53.487Z,78.85
2022-09-04T05:18:04.796Z,79.89
2022-09-04T05:19:28.540Z,79.85
2022-09-04T05:21:09.722Z,79.68
2022-09-04T05:22:34.344Z,79.21
2022-09-04T05:23:59.775Z,79.74
2022-09-04T05:25:32.411Z,78.57
2022-09-04T05:27:00.854Z,79.24
2022-09-04T05:28:30.069Z,80.84
2022-09-04T05:29:39.678Z,80.67
2022-09-04T05:31:18.935Z,79.59
2022-09-04T05:32:33.128Z,80.50
2022-09-04T05:33:55.176Z,81.56
2022-09-04T05:35:22.662Z,81.53
2022-09-04T05:36:54.050Z,81.21
2022-09-04T05:38:08.895Z,81.27
2022-09-04T05:39:38.861Z,80.57
2022-09-04T05:41:21.159Z,79.68
2022-09-04T05:42:42.210Z,79.55
2022-09-04T05:44:12.183Z,80.46
2022-09-04T05:45:23.643Z,80.06
2022-09-04T05:46:37.900Z,80.04
2022-09-04T05:48:01.266Z,80.11
2022-09-04T05:49:12.756Z,80.03
2022-09-04T05:50:43.374Z,79.48
2022-09-04T05:52:00.454Z,78.55
2022-09-04T05:53:15.903Z,78.51
2022-09-04T05:54:42.721Z,77.87
2022-09-04T05:56:06.391Z,78.27
2022-09-04T05:57:41.817Z,77.05
2022-09-04T05:59:04.065Z,76.17
2022-09-04T06:00:16.314Z,76.30
2022-09-04T06:01:38.960Z,75.50
2022-09-04T06:02:59.558Z,75.26
2022-09-04T06:04:29.697Z,75.69
2022-09-04T06:06:01.470Z,74.84
2022-09-04T06:07:16.322Z,73.74
2022-09-04T06:08:37.158Z,73.56
2022-09-04T06:09:45.055Z,73.69
2022-09-04T06:10:56.170Z,73.89
2022-09-04T06:12:19.417Z,73.60
2022-09-04T06:13:28.745Z,73.61
2022-09-04T06:14:57.041Z,73.83
2022-09-04T06:16:24.100Z,72.64
2022-09-04T06:18:09.713Z,71.93
2022-09-04T06:19:41.115Z,71.04
2022-09-04T06:21:05.822Z,69.71
2022-09-04T06:22:26.855Z,69.11
2022-09-04T06:23:48.895Z,68.00
2022-09-04T06:25:15.172Z,67.17
2022-09-04T06:26:27.729Z,64.86
2022-09-04T06:27:42.006Z,64.90
2022-09-04T06:28:56.487Z,63.73
2022-09-04T06:30:14.836Z,63.79
2022-09-04T06:31:19.853Z,63.41
2022-09-04T06:32:40.807Z,63.95
2022-09-04T06:34:12.641Z,62.78
2022-09-04T06:35:33.035Z,62.08
2022-09-04T06:37:03.650Z,62.15
2022-09-04T06:38:07.087Z,62.88
2022-09-04T06:39:38.026Z,62.27
2022-09-04T06:40:52.361Z,63.30
2022-09-04T06:42:22.589Z,62.88
2022-09-04T06:43:48.657Z,62.99
2022-09-04T06:45:22.676Z,63.34
2022-09-04T06:46:38.942Z,63.49
2022-09-04T06:47:53.271Z,62.76
2022-09-04T06:48:58.034Z,62.84
2022-09-04T06:50:22.850Z,62.63
2022-09-04T06:51:33.974Z,62.22
2022-09-04T06:52:46.065Z,62.47
2022-09-04T06:53:57.191Z,61.76
2022-09-04T06:55:07.664Z,62.47
2022-09-04T06:56:38.259Z,62.80
2022-09-04T06:58:13.857Z,63.36
2022-09-04T06:59:34.849Z,62.92
2022-09-04T07:00:41.849Z,63.89
2022-09-04T07:02:01.894Z,63.62
2022-09-04T07:03:39.280Z,63.08
2022-09-04T07:04:41.463Z,62.82
2022-09-04T07:06:01.613Z,62.94
2022-09-04T07:07:24.014Z,62.14
2022-09-04T07:08:28.786Z,62.80
2022-09-04T07:09:38.931Z,61.58
2022-09-04T07:10:53.515Z,61.77
2022-09-04T07:11:58.647Z,60.41
2022-09-04T07:13:23.625Z,59.14
2022-09-04T07:14:45.323Z,59.46
2022-09-04T07:16:05.277Z,59.66
2022-09-04T07:17:34.002Z,58.87
2022-09-04T07:18:54.598Z,58.01
2022-09-04T07:20:27.958Z,57.84
2022-09-04T07:21:54.573Z,56.73
2022-09-04T07:23:10.427Z,57.34
2022-09-04T07:24:56.910Z,56.90
2022-09-04T07:26:45.055Z,56.06
2022-09-04T07:28:24.741Z,55.82
2022-09-04T07:29:49.093Z,56.06
2022-09-04T07:30:58.385Z,56.45
2022-09-04T07:32:11.456Z,55.14
2022-09-04T07:33:46.035Z,55.19
2022-09-04T07:34:54.810Z,54.40
2022-09-04T07:36:08.000Z,54.99
2022-09-04T07:37:27.103Z,55.07
2022-09-04T07:38:34.874Z,53.98
2022-09-04T07:39:49.141Z,53.09
2022-09-04T07:41:02.185Z,53.51
2022-09-04T07:42:16.699Z,51.52
2022-09-04T07:43:27.719Z,52.41
2022-09-04T07:44:38.734Z,51.53
2022-09-04T07:45:51.294Z,51.34
2022-09-04T07:47:14.242Z,51.37
2022-09-04T07:48:49.454Z,50.68
2022-09-04T07:50:01.771Z,50.87
2022-09-04T07:51:15.915Z,51.37
2022-09-04T07:52:46.334Z,50.54
2022-09-04T07:54:22.986Z,50.09
2022-09-04T07:55:41.346Z,50.62
2022-09-04T07:57:05.967Z,50.22
2022-09-04T07:58:37.360Z,49.63
2022-09-04T07:59:39.487Z,48.73
2022-09-04T08:01:18.384Z,48.23
2022-09-04T08:02:37.671Z,47.76
2022-09-04T08:04:00.538Z,47.84
2022-09-04T08:05:10.802Z,47.63
2022-09-04T08:06:16.086Z,47.73
2022-09-04T08:07:48.727Z,46.98
2022-09-04T08:09:25.428Z,47.15
2022-09-04T08:10:51.750Z,46.60
2022-09-04T08:12:00.647Z,47.47
2022-09-04T08:13:33.622Z,45.78
2022-09-04T08:15:00.458Z,45.51
2022-09-04T08:16:19.402Z,44.25
2022-09-04T08:17:47.749Z,44.07
2022-09-04T08:19:33.488Z,44.72
2022-09-04T08:20:49.045Z,46.01
2022-09-04T08:21:53.547Z,47.11
2022-09-04T08:23:01.914Z,46.95
2022-09-04T08:24:45.792Z,46.30
2022-09-04T08:26:35.492Z,45.87
2022-09-04T08:27:44.865Z,45.46
2022-09-04T08:28:57.244Z,45.89
2022-09-04T08:29:59.549Z,45.67
2022-09-04T08:31:13.704Z,45.02
2022-09-04T08:32:36.755Z,44.21
2022-09-04T08:34:08.910Z,43.12
2022-09-04T08:35:33.424Z,42.01
2022-09-04T08:36:57.816Z,43.04
2022-09-04T08:38:26.381Z,44.07
2022-09-04T08:39:56.006Z,42.93
2022-09-04T08:41:26.088Z,43.02
2022-09-04T08:42:56.012Z,43.61
2022-09-04T08:44:16.619Z,43.38
2022-09-04T08:45:24.323Z,43.72
2022-09-04T08:46:32.601Z,43.86
2022-09-04T08:47:43.578Z,43.59
2022-09-04T08:49:13.863Z,43.04
2022-09-04T08:50:42.937Z,43.05
2022-09-04T08:51:57.063Z,41.35
2022-09-04T08:53:04.008Z,41.02
2022-09-04T08:54:31.236Z,40.11
2022-09-04T08:55:39.642Z,40.43
2022-09-04T08:57:03.522Z,40.01
2022-09-04T08:58:23.731Z,39.61
2022-09-04T08:59:47.568Z,40.42
2022-09-04T09:01:11.041Z,40.62
2022-09-04T09:02:35.004Z,40.23
2022-09-04T09:03:49.316Z,39.25
2022-09-04T09:05:12.929Z,39.16
2022-09-04T09:06:36.633Z,38.01
2022-09-04T09:07:58.458Z,37.71
2022-09-04T09:09:28.779Z,37.52
2022-09-04T09:11:17.781Z,37.04
2022-09-04T09:12:25.868Z,38.22
2022-09-04T09:14:07.493Z,37.26
2022-09-04T09:15:43.885Z,36.63
2022-09-04T09:17:26.121Z,36.64
2022-09-04T09:18:50.574Z,36.40
2022-09-04T09:20:09.120Z,36.54
2022-09-04T09:21:15.649Z,36.18
2022-09-04T09:22:34.887Z,35.91
2022-09-04T09:23:58.952Z,35.89
2022-09-04T09:25:24.190Z,35.76
2022-09-04T09:26:30.418Z,35.75
2022-09-04T09:28:08.782Z,35.22
2022-09-04T09:29:41.780Z,34.51
2022-09-04T09:31:40.858Z,34.09
2022-09-04T09:32:42.969Z,34.98
2022-09-04T09:34:25.665Z,34.65
2022-09-04T09:36:36.710Z,35.06
2022-09-04T09:38:03.761Z,33.85
2022-09-04T09:39:50.654Z,33.67
2022-09-04T09:41:02.439Z,33.12
2022-09-04T09:42:37.413Z,33.53
2022-09-04T09:43:53.634Z,33.61
2022-09-04T09:45:01.518Z,33.28
2022-09-04T09:46:06.403Z,33.18
2022-09-04T09:47:47.355Z,33.69
2022-09-04T09:48:58.337Z,34.45
2022-09-04T09:50:00.524Z,33.55
2022-09-04T09:51:02.705Z,32.89
2022-09-04T09:52:13.987Z,32.80
2022-09-04T09:53:43.840Z,31.00
2022-09-04T09:55:07.222Z,30.90
2022-09-04T09:56:40.308Z,31.50
2022-09-04T09:58:01.627Z,30.59
2022-09-04T09:59:25.411Z,31.01
2022-09-04T10:00:41.427Z,30.29
2022-09-04T10:01:57.449Z,29.60
2022-09-04T10:03:24.603Z,29.52
2022-09-04T10:04:45.919Z,28.91
2022-09-04T10:06:23.511Z,29.60
2022-09-04T10:07:55.120Z,28.46
2022-09-04T10:09:16.346Z,28.61
2022-09-04T10:10:46.365Z,29.04
2022-09-04T10:11:54.168Z,28.57
2022-09-04T10:13:17.430Z,27.92
2022-09-04T10:14:25.393Z,27.84
2022-09-04T10:15:52.753Z,27.32
2022-09-04T10:16:58.669Z,27.50
2022-09-04T10:18:24.269Z,27.21
2022-09-04T10:19:43.194Z,28.09
2022-09-04T10:21:20.803Z,27.02
2022-09-04T10:22:32.207Z,26.75
2022-09-04T10:24:07.112Z,26.27
2022-09-04T10:25:36.876Z,25.57
2022-09-04T10:27:03.429Z,25.01
2022-09-04T10:28:36.148Z,25.38
2022-09-04T10:29:41.583Z,24.44
2022-09-04T10:30:49.886Z,24.45
2022-09-04T10:31:57.893Z,25.34
2022-09-04T10:33:19.219Z,24.86
2022-09-04T10:34:27.636Z,25.08
2022-09-04T10:35:48.696Z,25.09
2022-09-04T10:37:01.398Z,25.29
2022-09-04T10:38:03.531Z,25.13
2022-09-04T10:39:58.899Z,24.19
2022-09-04T10:41:22.618Z,24.04
2022-09-04T10:42:45.215Z,24.96
2022-09-04T10:44:17.722Z,24.32
2022-09-04T10:45:30.515Z,24.73
2022-09-04T10:47:02.786Z,24.09
2022-09-04T10:48:10.971Z,25.77
2022-09-04T10:50:05.386Z,26.50
2022-09-04T10:51:41.623Z,26.71
2022-09-04T10:53:11.208Z,26.71
2022-09-04T10:54:31.725Z,26.44
2022-09-04T10:56:01.769Z,26.09
2022-09-04T10:57:25.276Z,25.95
2022-09-04T10:58:45.048Z,24.64
2022-09-04T11:00:17.731Z,24.60
2022-09-04T11:01:35.673Z,24.65
2022-09-04T11:02:53.117Z,23.83
2022-09-04T11:04:19.270Z,23.68
2022-09-04T11:05:36.472Z,23.00
2022-09-04T11:07:12.021Z,23.71
2022-09-04T11:09:05.601Z,23.31
2022-09-04T11:10:41.432Z,23.32
2022-09-04T11:12:12.459Z,23.09
2022-09-04T11:13:23.775Z,22.84
2022-09-04T11:15:04.024Z,23.27
2022-09-04T11:16:24.425Z,22.91
2022-09-04T11:17:28.315Z,22.66
2022-09-04T11:19:10.991Z,24.29
2022-09-04T11:20:28.178Z,23.50
2022-09-04T11:22:01.126Z,23.96
2022-09-04T11:23:31.098Z,23.74
2022-09-04T11:25:13.123Z,22.67
2022-09-04T11:26:38.022Z,22.11
2022-09-04T11:28:40.162Z,23.55
2022-09-04T11:30:12.073Z,22.75
2022-09-04T11:31:35.232Z,24.41
2022-09-04T11:32:59.370Z,24.70
2022-09-04T11:34:43.218Z,25.16
2022-09-04T11:35:54.273Z,24.98
2022-09-04T11:37:17.926Z,24.06
2022-09-04T11:39:00.896Z,23.76
2022-09-04T11:40:48.386Z,24.50
2022-09-04T11:42:16.881Z,24.23
2022-09-04T11:43:25.095Z,25.03
2022-09-04T11:44:27.331Z,24.90
2022-09-04T11:46:00.313Z,23.88
2022-09-04T11:47:12.169Z,24.33
2022-09-04T11:48:17.364Z,24.57
2022-09-04T11:49:36.440Z,24.56
2022-09-04T11:51:00.330Z,24.78
2022-09-04T11:52:23.858Z,24.39
2022-09-04T11:53:44.751Z,24.13
2022-09-04T11:55:25.730Z,25.19
2022-09-04T11:57:02.630Z,24.90
2022-09-04T11:58:16.953Z,24.25
2022-09-04T11:59:50.073Z,24.03
2022-09-04T12:01:16.794Z,23.91
2022-09-04T12:02:41.827Z,24.90
2022-09-04T12:04:38.131Z,25.29
2022-09-04T12:05:50.714Z,25.68
2022-09-04T12:07:02.375Z,25.95
2022-09-04T12:08:38.687Z,25.23
2022-09-04T12:09:44.128Z,25.59
2022-09-04T12:11:32.003Z,25.52
2022-09-04T12:12:53.735Z,24.80
2022-09-04T12:14:15.166Z,24.76
2022-09-04T12:15:46.191Z,24.07
2022-09-04T12:17:26.118Z,24.32
2022-09-04T12:18:56.111Z,24.64
2022-09-04T12:20:24.177Z,23.77
2022-09-04T12:21:41.034Z,22.28
2022-09-04T12:23:21.638Z,22.86
2022-09-04T12:24:32.530Z,22.11
2022-09-04T12:25:53.981Z,22.82
2022-09-04T12:27:02.130Z,23.64
2022-09-04T12:28:26.645Z,23.44
2022-09-04T12:29:34.591Z,24.65
2022-09-04T12:30:43.060Z,25.22
2022-09-04T12:32:26.569Z,25.55
2022-09-04T12:34:13.126Z,26.64
2022-09-04T12:35:21.069Z,26.10
2022-09-04T12:36:33.180Z,26.17
2022-09-04T12:38:12.975Z,26.38
2022-09-04T12:39:17.767Z,27.47
2022-09-04T12:40:41.684Z,27.07
2022-09-04T12:42:19.283Z,26.85
2022-09-04T12:43:42.714Z,27.15
2022-09-04T12:44:50.550Z,27.66
2022-09-04T12:46:35.316Z,26.76
2022-09-04T12:47:37.450Z,27.17
2022-09-04T12:49:11.011Z,27.36
2022-09-04T12:50:28.216Z,26.67
2022-09-04T12:51:51.536Z,26.32
2022-09-04T12:52:56.765Z,27.61
2022-09-04T12:53:58.965Z,28.24
2022-09-04T12:55:15.569Z,27.65
2022-09-04T12:56:51.391Z,28.07
2022-09-04T12:58:17.780Z,27.26
2022-09-04T12:59:40.220Z,27.16
2022-09-04T13:01:13.719Z,27.12
2022-09-04T13:02:34.064Z,27.46
2022-09-04T13:04:04.299Z,26.91
2022-09-04T13:05:33.522Z,27.02
2022-09-04T13:07:16.311Z,27.00
2022-09-04T13:08:38.442Z,27.48
2022-09-04T13:10:02.093Z,26.53
2022-09-04T13:11:13.513Z,27.47
2022-09-04T13:12:34.999Z,27.16
2022-09-04T13:14:27.656Z,27.45
2022-09-04T13:15:48.554Z,26.91
2022-09-04T13:17:02.393Z,26.63
2022-09-04T13:18:34.730Z,26.79
2022-09-04T13:19:52.438Z,26.87
2022-09-04T13:21:12.465Z,27.01
2022-09-04T13:22:42.200Z,28.28
2022-09-04T13:23:50.010Z,28.32
2022-09-04T13:25:02.678Z,28.04
2022-09-04T13:26:20.894Z,26.58
2022-09-04T13:27:48.135Z,27.20
2022-09-04T13:28:59.312Z,27.19
2022-09-04T13:30:15.319Z,27.82
2022-09-04T13:31:20.356Z,27.80
2022-09-04T13:32:48.893Z,27.56
2022-09-04T13:33:57.375Z,28.11
2022-09-04T13:35:31.347Z,27.17
2022-09-04T13:36:54.164Z,27.30
2022-09-04T13:38:15.295Z,27.35
2022-09-04T13:39:50.681Z,27.23
2022-09-04T13:41:30.494Z,27.12
2022-09-04T13:42:54.370Z,28.50
2022-09-04T13:44:18.511Z,27.68
2022-09-04T13:45:25.460Z,27.55
2022-09-04T13:46:43.887Z,26.78
2022-09-04T13:47:54.558Z,27.38
2022-09-04T13:48:59.630Z,27.89
2022-09-04T13:50:17.253Z,28.10
2022-09-04T13:51:29.846Z,28.69
2022-09-04T13:52:50.030Z,27.81
2022-09-04T13:54:01.171Z,28.12
2022-09-04T13:55:13.809Z,29.15
2022-09-04T13:56:23.646Z,28.83
2022-09-04T13:57:30.133Z,28.64
2022-09-04T13:58:51.341Z,27.93
2022-09-04T13:59:59.128Z,27.67
2022-09-04T14:01:07.232Z,27.76
2022-09-04T14:02:14.281Z,27.88
2022-09-04T14:03:25.949Z,27.05
2022-09-04T14:04:35.799Z,27.21
2022-09-04T14:05:38.915Z,27.36
2022-09-04T14:06:41.142Z,26.91
2022-09-04T14:07:47.565Z,27.37
2022-09-04T14:08:59.680Z,27.33
2022-09-04T14:10:16.631Z,27.31
2022-09-04T14:11:47.069Z,26.25
2022-09-04T14:13:07.260Z,25.92
2022-09-04T14:14:30.870Z,27.34
2022-09-04T14:16:01.727Z,26.92
2022-09-04T14:17:06.952Z,27.08
2022-09-04T14:18:35.200Z,27.31
2022-09-04T14:19:54.936Z,26.51
2022-09-04T14:21:43.053Z,26.91
2022-09-04T14:22:49.374Z,27.28
2022-09-04T14:24:14.229Z,27.25
2022-09-04T14:25:21.107Z,27.89
2022-09-04T14:26:40.057Z,28.46
2022-09-04T14:28:17.333Z,28.21
2022-09-04T14:29:22.298Z,28.59
2022-09-04T14:30:24.706Z,28.06
2022-09-04T14:31:52.435Z,28.23
2022-09-04T14:33:21.788Z,28.01
2022-09-04T14:34:52.670Z,27.70
2022-09-04T14:36:02.654Z,28.39
2022-09-04T14:37:36.112Z,28.81
2022-09-04T14:38:49.376Z,28.57
2022-09-04T14:40:08.247Z,28.13
2022-09-04T14:41:20.596Z,28.71
2022-09-04T14:42:41.512Z,27.78
2022-09-04T14:44:03.703Z,28.04
2022-09-04T14:45:24.503Z,28.30
2022-09-04T14:46:32.832Z,27.53
2022-09-04T14:47:43.717Z,27.70
2022-09-04T14:48:51.274Z,27.50
2022-09-04T14:50:01.211Z,27.25
2022-09-04T14:51:16.175Z,27.01
2022-09-04T14:52:23.331Z,28.22
2022-09-04T14:53:34.899Z,28.22
2022-09-04T14:54:43.539Z,29.10
2022-09-04T14:56:04.791Z,28.49
2022-09-04T14:57:26.691Z,29.28
2022-09-04T14:58:35.647Z,28.36
2022-09-04T14:59:44.996Z,29.26
2022-09-04T15:01:02.963Z,28.72
2022-09-04T15:02:18.240Z,29.03
2022-09-04T15:03:28.480Z,28.80
2022-09-04T15:04:46.617Z,28.69
2022-09-04T15:05:56.804Z,29.14
2022-09-04T15:07:16.682Z,28.50
2022-09-04T15:08:39.978Z,28.35
2022-09-04T15:09:48.168Z,28.45
2022-09-04T15:10:53.749Z,28.64
2022-09-04T15:12:28.649Z,29.30
2022-09-04T15:13:32.031Z,29.89
2022-09-04T15:14:36.900Z,30.78
2022-09-04T15:15:42.791Z,30.56
2022-09-04T15:16:50.672Z,30.93
2022-09-04T15:18:02.189Z,30.56
2022-09-04T15:19:07.564Z,31.26
2022-09-04T15:20:20.342Z,32.17
2022-09-04T15:21:39.076Z,31.58
2022-09-04T15:23:17.314Z,31.65
2022-09-04T15:24:44.440Z,32.57
2022-09-04T15:26:01.175Z,33.09
2022-09-04T15:27:30.502Z,32.28
2022-09-04T15:28:47.496Z,32.92
2022-09-04T15:30:17.601Z,32.54
2022-09-04T15:31:29.154Z,32.22
2022-09-04T15:32:42.544Z,32.17
2022-09-04T15:33:47.691Z,32.25
2022-09-04T15:35:05.150Z,32.51
2022-09-04T15:36:15.698Z,32.20
2022-09-04T15:37:26.021Z,32.78
2022-09-04T15:38:28.245Z,32.31
2022-09-04T15:39:40.571Z,32.72
2022-09-04T15:41:15.510Z,32.17
2022-09-04T15:42:32.835Z,32.66
2022-09-04T15:43:42.951Z,32.55
2022-09-04T15:44:47.510Z,32.99
2022-09-04T15:45:52.517Z,32.30
2022-09-04T15:47:14.115Z,32.47
2022-09-04T15:48:53.145Z,32.72
2022-09-04T15:50:16.118Z,32.32
2022-09-04T15:51:47.381Z,32.34
2022-09-04T15:52:58.568Z,32.27
2022-09-04T15:54:28.908Z,32.28
2022-09-04T15:55:35.669Z,32.88
2022-09-04T15:56:55.446Z,32.88
2022-09-04T15:58:14.687Z,32.96
2022-09-04T15:59:22.397Z,33.55
2022-09-04T16:00:27.344Z,34.12
2022-09-04T16:01:47.623Z,34.02
2022-09-04T16:03:09.338Z,34.12
2022-09-04T16:04:32.767Z,34.13
2022-09-04T16:05:45.019Z,34.24
2022-09-04T16:06:57.776Z,34.08
2022-09-04T16:08:20.916Z,33.95
2022-09-04T16:09:33.600Z,33.76
2022-09-04T16:10:45.593Z,33.97
2022-09-04T16:12:37.918Z,34.00
2022-09-04T16:13:52.974Z,33.99
2022-09-04T16:15:09.641Z,34.26
2022-09-04T16:16:34.085Z,34.12
2022-09-04T16:17:44.949Z,33.98
2022-09-04T16:19:20.788Z,33.71
2022-09-04T16:20:28.832Z,34.11
2022-09-04T16:22:01.665Z,33.94
2022-09-04T16:23:14.674Z,33.74
2022-09-04T16:24:21.469Z,34.38
2022-09-04T16:25:34.797Z,34.32
2022-09-04T16:26:38.085Z,34.29
2022-09-04T16:27:48.994Z,34.78
2022-09-04T16:28:58.858Z,35.51
2022-09-04T16:30:05.144Z,35.02
2022-09-04T16:31:14.413Z,35.01
2022-09-04T16:32:26.251Z,35.10
2022-09-04T16:33:47.406Z,35.43
2022-09-04T16:35:06.296Z,35.49
2022-09-04T16:36:15.574Z,35.79
2022-09-04T16:37:31.324Z,35.75
2022-09-04T16:38:52.644Z,36.05
2022-09-04T16:40:24.432Z,35.97
2022-09-04T16:41:37.517Z,36.84
2022-09-04T16:42:50.049Z,36.18
2022-09-04T16:44:14.622Z,36.18
2022-09-04T16:45:37.409Z,36.56
2022-09-04T16:46:50.587Z,36.85
2022-09-04T16:47:59.112Z,36.61
2022-09-04T16:49:25.315Z,37.81
2022-09-04T16:50:38.895Z,37.55
2022-09-04T16:51:56.791Z,37.69
2022-09-04T16:53:19.798Z,37.22
2022-09-04T16:54:47.289Z,37.70
2022-09-04T16:56:02.795Z,37.87
2022-09-04T16:57:18.577Z,37.86
2022-09-04T16:58:29.944Z,38.19
2022-09-04T17:00:00.635Z,38.17
2022-09-04T17:01:14.717Z,38.39
2022-09-04T17:02:29.378Z,38.64
2022-09-04T17:03:51.966Z,38.49
2022-09-04T17:05:10.261Z,38.58
2022-09-04T17:06:34.673Z,38.80
2022-09-04T17:07:43.827Z,38.63
2022-09-04T17:08:53.885Z,39.22
2022-09-04T17:10:05.078Z,39.45
2022-09-04T17:11:41.822Z,38.50
2022-09-04T17:13:04.507Z,39.26
2022-09-04T17:14:30.658Z,38.91
2022-09-04T17:15:58.058Z,39.44
2022-09-04T17:17:29.803Z,39.37